Fredericksburg, TX

10:42 PM CDT on July 21, 2017 (GMT -0500)
Fredericksburg

Weather History for KT82 - February, 2013

Change the Weather History Date:

Thursday, February 28, 2013

  Actual Average (KSAT) Record (KSAT)
Temperature  
Mean Temperature 44 °F -  
Max Temperature 58 °F 70 °F 94 °F (1940)
Min Temperature 31 °F 46 °F 24 °F (1890)
Degree Days  
Heating Degree Days 20    
Moisture  
Dew Point 22 °F    
Average Humidity 47    
Maximum Humidity 70    
Minimum Humidity 21    
Precipitation  
Precipitation 0.00 in - - ()
Sea Level Pressure  
Sea Level Pressure 30.25 in    
Wind  
Wind Speed 5 mph (NNW)    
Max Wind Speed 14 mph    
Max Gust Speed 21 mph    
Visibility 10 miles    
Events      
Averages and records for this station are not official NWS values.
T = Trace of Precipitation, MM = Missing Value Source: NWS Daily Summary

Daily Weather History Graph

Daily Weather History Graph

Search for Another Location

Airport or City:

Trip Planner

Search our weather history database for the weather conditions in past years. The results will help you decide how hot, cold, wet, or windy it might be!

Date:

Astronomy

Feb. 28, 2013 Rise Set
Actual Time 7:02 AM CST 6:34 PM CST
Civil Twilight 6:38 AM CST 6:58 PM CST
Nautical Twilight 6:10 AM CST 7:26 PM CST
Astronomical Twilight 5:42 AM CST 7:53 PM CST
Moon 9:43 PM CST (2/28) 8:29 AM CST (2/28)
Length of Visible Light 12h 19m
Length of Day
11h 31m
Waning Gibbous, 90% of the Moon is Illuminated
Feb 28
Waning Gibbous
Mar 4
Last Quarter
Mar 11
New
Mar 19
First Quarter
Mar 27
Full

Hourly Weather History & Observations

Time (CST) Temp. Windchill Dew Point Humidity Pressure Visibility Wind Dir Wind Speed Gust Speed Precip Events Conditions
12:15 AM 33.6 °F 30.6 °F 19.0 °F 55% 30.24 in 10.0 mi West 3.5 mph - N/A   Clear
12:35 AM 36.3 °F - 18.5 °F 48% 30.24 in 10.0 mi Calm Calm - N/A   Clear
12:55 AM 33.3 °F 28.9 °F 19.8 °F 58% 30.24 in 10.0 mi NW 4.6 mph - N/A   Clear
1:15 AM 31.5 °F 25.8 °F 19.8 °F 62% 30.24 in 10.0 mi NNW 5.8 mph - N/A   Clear
1:35 AM 35.1 °F - 19.4 °F 53% 30.24 in 10.0 mi Calm Calm - N/A   Clear
1:55 AM 34.7 °F 30.6 °F 20.5 °F 56% 30.24 in 10.0 mi NW 4.6 mph - N/A   Clear
2:15 AM 34.2 °F - 21.2 °F 59% 30.24 in 10.0 mi Calm Calm - N/A   Clear
2:35 AM 33.8 °F 30.8 °F 21.2 °F 60% 30.24 in 10.0 mi NW 3.5 mph - N/A   Clear
2:55 AM 35.6 °F 31.7 °F 21.2 °F 56% 30.23 in 10.0 mi NW 4.6 mph - N/A   Clear
3:15 AM 35.8 °F 33.0 °F 21.9 °F 57% 30.24 in 10.0 mi SW 3.5 mph - N/A   Clear
3:35 AM 35.1 °F 31.0 °F 22.3 °F 60% 30.24 in 10.0 mi West 4.6 mph - N/A   Clear
3:55 AM 35.1 °F - 22.8 °F 61% 30.24 in 10.0 mi Calm Calm - N/A   Clear
4:15 AM 34.5 °F - 23.7 °F 65% 30.24 in 10.0 mi Calm Calm - N/A   Clear
4:35 AM 35.6 °F 31.7 °F 23.4 °F 61% 30.24 in 10.0 mi NW 4.6 mph - N/A   Clear
4:55 AM 35.6 °F 31.7 °F 23.9 °F 62% 30.24 in 10.0 mi NW 4.6 mph - N/A   Clear
5:15 AM 35.6 °F 31.7 °F 24.4 °F 64% 30.24 in 10.0 mi NW 4.6 mph - N/A   Clear
5:35 AM 35.6 °F 32.8 °F 24.8 °F 65% 30.24 in 10.0 mi NW 3.5 mph - N/A   Clear
5:55 AM 35.4 °F - 25.2 °F 66% 30.25 in 10.0 mi Calm Calm - N/A   Clear
6:15 AM 36.1 °F 33.5 °F 26.1 °F 67% 30.26 in 10.0 mi WNW 3.5 mph - N/A   Clear
6:35 AM 36.5 °F - 27.5 °F 70% 30.26 in 10.0 mi Calm Calm - N/A   Clear
6:55 AM 36.9 °F 33.1 °F 27.3 °F 68% 30.27 in 10.0 mi NNW 4.6 mph - N/A   Clear
7:15 AM 37.0 °F 34.5 °F 27.3 °F 68% 30.28 in 10.0 mi NNW 3.5 mph - N/A   Clear
7:35 AM 38.1 °F 33.7 °F 27.5 °F 66% 30.28 in 10.0 mi NNW 5.8 mph - N/A   Clear
7:55 AM 38.5 °F 36.1 °F 27.3 °F 64% 30.29 in 10.0 mi NNW 3.5 mph - N/A   Clear
8:15 AM 39.6 °F 36.3 °F 27.1 °F 61% 30.30 in 10.0 mi North 4.6 mph - N/A   Clear
8:35 AM 40.6 °F 34.8 °F 26.8 °F 58% 30.31 in 10.0 mi North 9.2 mph - N/A   Clear
8:55 AM 41.7 °F 37.3 °F 26.8 °F 55% 30.31 in 10.0 mi NNE 6.9 mph - N/A   Clear
9:15 AM 43.0 °F 37.7 °F 26.8 °F 53% 30.31 in 10.0 mi NNE 9.2 mph - N/A   Clear
9:35 AM 43.7 °F 38.6 °F 26.6 °F 51% 30.32 in 10.0 mi NNE 9.2 mph - N/A   Clear
9:55 AM 44.1 °F 39.5 °F 27.0 °F 51% 30.32 in 10.0 mi North 8.1 mph - N/A   Clear
10:15 AM 44.1 °F 40.8 °F 27.3 °F 52% 30.32 in 10.0 mi NE 5.8 mph - N/A   Clear
10:35 AM 45.9 °F 43.6 °F 27.7 °F 49% 30.31 in 10.0 mi NNE 4.6 mph - N/A   Clear
10:55 AM 48.6 °F - 27.3 °F 44% 30.30 in 10.0 mi North 11.5 mph 19.6 mph N/A   Clear
11:15 AM 50.5 °F - 25.2 °F 37% 30.30 in 10.0 mi North 11.5 mph 18.4 mph N/A   Clear
11:35 AM 51.4 °F - 24.3 °F 35% 30.30 in 10.0 mi North 12.7 mph 20.7 mph N/A   Clear
11:55 AM 52.5 °F - 24.4 °F 34% 30.30 in 10.0 mi North 11.5 mph 19.6 mph N/A   Clear
12:35 PM 53.2 °F - 25.0 °F 33% 30.27 in 10.0 mi North 13.8 mph 17.3 mph N/A   Clear
12:55 PM 55.2 °F - 24.8 °F 31% 30.25 in 10.0 mi North 6.9 mph 17.3 mph N/A   Clear
1:15 PM 55.2 °F - 24.1 °F 30% 30.24 in 10.0 mi NNE 9.2 mph - N/A   Clear
1:35 PM 54.5 °F - 21.7 °F 28% 30.24 in 10.0 mi North 11.5 mph 17.3 mph N/A   Clear
1:55 PM 55.6 °F - 23.5 °F 29% 30.23 in 10.0 mi North 11.5 mph 18.4 mph N/A   Clear
2:15 PM 56.5 °F - 21.7 °F 26% 30.22 in 10.0 mi North 8.1 mph 19.6 mph N/A   Clear
2:35 PM 57.6 °F - 20.8 °F 24% 30.21 in 10.0 mi North 10.4 mph 19.6 mph N/A   Clear
2:55 PM 57.7 °F - 20.3 °F 23% 30.21 in 10.0 mi North 10.4 mph - N/A   Clear
3:15 PM 57.4 °F - 18.9 °F 22% 30.21 in 10.0 mi North 10.4 mph 18.4 mph N/A   Clear
3:35 PM 57.7 °F - 19.4 °F 23% 30.20 in 10.0 mi NNW 12.7 mph - N/A   Clear
3:55 PM 58.1 °F - 19.2 °F 22% 30.20 in 10.0 mi North 11.5 mph 16.1 mph N/A   Clear
4:15 PM 58.1 °F - 18.5 °F 21% 30.20 in 10.0 mi North 10.4 mph - N/A   Clear
4:35 PM 57.4 °F - 18.9 °F 22% 30.20 in 10.0 mi NNW 8.1 mph - N/A   Clear
4:55 PM 57.4 °F - 18.3 °F 22% 30.19 in 10.0 mi North 6.9 mph - N/A   Clear
5:15 PM 57.9 °F - 18.0 °F 21% 30.20 in 10.0 mi NNW 8.1 mph 11.5 mph N/A   Clear
5:35 PM 57.2 °F - 18.0 °F 22% 30.20 in 10.0 mi NNW 13.8 mph - N/A   Clear
5:55 PM 56.3 °F - 17.4 °F 22% 30.21 in 10.0 mi North 9.2 mph - N/A   Clear
6:15 PM 54.0 °F - 17.6 °F 24% 30.21 in 10.0 mi North 6.9 mph - N/A   Clear
6:35 PM 50.4 °F - 17.2 °F 27% 30.21 in 10.0 mi North 3.5 mph - N/A   Clear
7:15 PM 41.2 °F 39.2 °F 17.6 °F 39% 30.23 in 10.0 mi NW 3.5 mph - N/A   Clear
7:35 PM 43.2 °F - 18.5 °F 37% 30.23 in 10.0 mi Calm Calm - N/A   Clear
7:55 PM 41.9 °F 39.0 °F 19.4 °F 41% 30.24 in 10.0 mi NW 4.6 mph - N/A   Clear
8:15 PM 38.3 °F 35.9 °F 20.3 °F 48% 30.24 in 10.0 mi NNW 3.5 mph - N/A   Clear
8:35 PM 39.7 °F - 20.3 °F 46% 30.24 in 10.0 mi Calm Calm - N/A   Clear
8:55 PM 40.5 °F 38.4 °F 23.0 °F 50% 30.24 in 10.0 mi West 3.5 mph - N/A   Clear
9:15 PM 39.0 °F 36.8 °F 22.1 °F 51% 30.24 in 10.0 mi NW 3.5 mph - N/A   Clear
9:35 PM 36.1 °F 32.3 °F 22.3 °F 57% 30.24 in 10.0 mi NW 4.6 mph - N/A   Clear
9:55 PM 35.8 °F 31.9 °F 21.9 °F 57% 30.24 in 10.0 mi NW 4.6 mph - N/A   Clear
10:15 PM 35.1 °F 31.0 °F 21.7 °F 58% 30.25 in 10.0 mi NW 4.6 mph - N/A   Clear
10:35 PM 34.3 °F 31.4 °F 21.7 °F 60% 30.25 in 10.0 mi NW 3.5 mph - N/A   Clear
10:55 PM 33.4 °F 30.4 °F 21.6 °F 62% 30.25 in 10.0 mi NW 3.5 mph - N/A   Clear
11:15 PM 34.0 °F 31.0 °F 21.6 °F 60% 30.25 in 10.0 mi WNW 3.5 mph - N/A   Clear
11:35 PM 32.2 °F - 21.2 °F 64% 30.25 in 10.0 mi Calm Calm - N/A   Clear
11:55 PM 32.2 °F - 21.6 °F 65% 30.25 in 10.0 mi Calm Calm - N/A   Clear